sensor_id;sensor_type;location;lat;lon;timestamp;pressure;altitude;pressure_sealevel;temperature;humidity
49397;BME280;35615;41.410;2.194;2023-04-06T00:02:04;101865.84;;;17.50;50.84
49397;BME280;35615;41.410;2.194;2023-04-06T00:04:31;101859.03;;;17.55;50.67
49397;BME280;35615;41.410;2.194;2023-04-06T00:06:59;101864.00;;;17.46;51.02
49397;BME280;35615;41.410;2.194;2023-04-06T00:09:27;101871.50;;;17.34;50.85
49397;BME280;35615;41.410;2.194;2023-04-06T00:11:54;101876.84;;;17.38;50.64
49397;BME280;35615;41.410;2.194;2023-04-06T00:14:22;101869.56;;;17.28;50.90
49397;BME280;35615;41.410;2.194;2023-04-06T00:16:50;101875.59;;;17.26;50.60
49397;BME280;35615;41.410;2.194;2023-04-06T00:19:18;101870.31;;;17.23;50.54
49397;BME280;35615;41.410;2.194;2023-04-06T00:21:50;101872.41;;;17.06;50.88
49397;BME280;35615;41.410;2.194;2023-04-06T00:24:18;101875.75;;;17.00;50.99
49397;BME280;35615;41.410;2.194;2023-04-06T00:26:45;101877.50;;;17.01;50.71
49397;BME280;35615;41.410;2.194;2023-04-06T00:29:13;101879.28;;;17.02;50.68
49397;BME280;35615;41.410;2.194;2023-04-06T00:31:46;101879.03;;;16.95;50.68
49397;BME280;35615;41.410;2.194;2023-04-06T00:34:14;101867.19;;;17.06;50.67
49397;BME280;35615;41.410;2.194;2023-04-06T00:36:43;101862.84;;;17.06;50.51
49397;BME280;35615;41.410;2.194;2023-04-06T00:39:10;101863.50;;;16.98;50.74
49397;BME280;35615;41.410;2.194;2023-04-06T00:41:38;101873.78;;;16.93;51.03
49397;BME280;35615;41.410;2.194;2023-04-06T00:44:06;101868.78;;;17.01;50.76
49397;BME280;35615;41.410;2.194;2023-04-06T00:46:34;101862.44;;;16.93;50.73
49397;BME280;35615;41.410;2.194;2023-04-06T00:49:01;101863.47;;;16.69;51.21
49397;BME280;35615;41.410;2.194;2023-04-06T00:51:28;101862.16;;;16.83;51.09
49397;BME280;35615;41.410;2.194;2023-04-06T00:53:56;101863.81;;;16.80;51.21
49397;BME280;35615;41.410;2.194;2023-04-06T00:56:26;101863.47;;;16.69;51.48
49397;BME280;35615;41.410;2.194;2023-04-06T00:59:00;101862.88;;;16.78;51.33
49397;BME280;35615;41.410;2.194;2023-04-06T01:01:28;101859.16;;;16.98;50.76
49397;BME280;35615;41.410;2.194;2023-04-06T01:04:01;101857.91;;;16.86;50.83
49397;BME280;35615;41.410;2.194;2023-04-06T01:06:35;101857.72;;;16.79;51.01
49397;BME280;35615;41.410;2.194;2023-04-06T01:09:02;101863.63;;;16.74;51.24
49397;BME280;35615;41.410;2.194;2023-04-06T01:11:33;101855.97;;;16.80;51.00
49397;BME280;35615;41.410;2.194;2023-04-06T01:14:03;101860.59;;;16.89;50.83
49397;BME280;35615;41.410;2.194;2023-04-06T01:16:48;101849.75;;;16.75;51.17
49397;BME280;35615;41.410;2.194;2023-04-06T01:19:19;101847.47;;;16.86;50.56
49397;BME280;35615;41.410;2.194;2023-04-06T01:21:50;101848.91;;;16.76;50.83
49397;BME280;35615;41.410;2.194;2023-04-06T01:24:29;101843.72;;;16.77;50.84
49397;BME280;35615;41.410;2.194;2023-04-06T01:27:13;101856.53;;;16.70;51.17
49397;BME280;35615;41.410;2.194;2023-04-06T01:29:49;101858.13;;;16.66;51.25
49397;BME280;35615;41.410;2.194;2023-04-06T01:32:31;101850.16;;;16.62;51.10
49397;BME280;35615;41.410;2.194;2023-04-06T01:34:59;101844.22;;;16.66;51.03
49397;BME280;35615;41.410;2.194;2023-04-06T01:37:31;101850.69;;;16.51;51.30
49397;BME280;35615;41.410;2.194;2023-04-06T01:40:03;101849.72;;;16.48;51.34
49397;BME280;35615;41.410;2.194;2023-04-06T01:42:43;101854.06;;;16.47;51.19
49397;BME280;35615;41.410;2.194;2023-04-06T01:45:14;101841.91;;;16.48;51.01
49397;BME280;35615;41.410;2.194;2023-04-06T01:47:46;101846.16;;;16.44;50.98
49397;BME280;35615;41.410;2.194;2023-04-06T01:50:14;101840.09;;;16.45;50.80
49397;BME280;35615;41.410;2.194;2023-04-06T01:52:47;101848.72;;;16.43;50.78
49397;BME280;35615;41.410;2.194;2023-04-06T01:55:21;101845.47;;;16.23;51.06
49397;BME280;35615;41.410;2.194;2023-04-06T01:58:14;101843.03;;;16.29;50.84
49397;BME280;35615;41.410;2.194;2023-04-06T02:00:41;101850.59;;;16.20;51.12
49397;BME280;35615;41.410;2.194;2023-04-06T02:03:09;101844.13;;;16.36;50.50
49397;BME280;35615;41.410;2.194;2023-04-06T02:05:38;101843.66;;;16.20;50.54
49397;BME280;35615;41.410;2.194;2023-04-06T02:08:19;101841.59;;;16.39;50.30
49397;BME280;35615;41.410;2.194;2023-04-06T02:10:46;101841.44;;;16.33;50.33
49397;BME280;35615;41.410;2.194;2023-04-06T02:13:23;101832.81;;;16.35;50.34
49397;BME280;35615;41.410;2.194;2023-04-06T02:15:52;101845.72;;;16.31;50.27
49397;BME280;35615;41.410;2.194;2023-04-06T02:18:20;101836.34;;;16.37;50.08
49397;BME280;35615;41.410;2.194;2023-04-06T02:20:47;101830.84;;;16.28;50.22
49397;BME280;35615;41.410;2.194;2023-04-06T02:23:14;101835.81;;;16.20;50.24
49397;BME280;35615;41.410;2.194;2023-04-06T02:25:42;101829.09;;;16.28;50.07
49397;BME280;35615;41.410;2.194;2023-04-06T02:28:09;101825.94;;;16.10;50.31
49397;BME280;35615;41.410;2.194;2023-04-06T02:30:36;101830.59;;;16.20;50.21
49397;BME280;35615;41.410;2.194;2023-04-06T02:33:04;101824.28;;;16.14;50.06
49397;BME280;35615;41.410;2.194;2023-04-06T02:35:40;101825.88;;;16.09;50.32
49397;BME280;35615;41.410;2.194;2023-04-06T02:38:07;101823.63;;;15.94;50.49
49397;BME280;35615;41.410;2.194;2023-04-06T02:40:34;101823.69;;;15.95;50.29
49397;BME280;35615;41.410;2.194;2023-04-06T02:43:13;101823.84;;;16.00;50.37
49397;BME280;35615;41.410;2.194;2023-04-06T02:45:40;101827.03;;;15.91;50.48
49397;BME280;35615;41.410;2.194;2023-04-06T02:48:09;101818.41;;;15.94;50.14
49397;BME280;35615;41.410;2.194;2023-04-06T02:50:36;101823.69;;;15.95;50.22
49397;BME280;35615;41.410;2.194;2023-04-06T02:53:05;101827.59;;;16.08;50.02
49397;BME280;35615;41.410;2.194;2023-04-06T02:55:37;101821.28;;;16.02;49.98
49397;BME280;35615;41.410;2.194;2023-04-06T02:58:10;101833.09;;;15.90;50.24
49397;BME280;35615;41.410;2.194;2023-04-06T03:00:47;101829.03;;;15.98;49.87
49397;BME280;35615;41.410;2.194;2023-04-06T03:03:15;101812.44;;;15.96;50.04
49397;BME280;35615;41.410;2.194;2023-04-06T03:05:50;101819.47;;;15.99;49.87
49397;BME280;35615;41.410;2.194;2023-04-06T03:08:26;101817.00;;;16.04;49.68
49397;BME280;35615;41.410;2.194;2023-04-06T03:10:53;101819.22;;;15.91;50.06
49397;BME280;35615;41.410;2.194;2023-04-06T03:13:32;101814.38;;;15.77;50.43
49397;BME280;35615;41.410;2.194;2023-04-06T03:16:00;101818.09;;;15.85;49.96
49397;BME280;35615;41.410;2.194;2023-04-06T03:18:29;101816.25;;;15.81;50.42
49397;BME280;35615;41.410;2.194;2023-04-06T03:20:57;101809.03;;;15.74;50.53
49397;BME280;35615;41.410;2.194;2023-04-06T03:23:30;101812.50;;;15.73;50.51
49397;BME280;35615;41.410;2.194;2023-04-06T03:26:01;101820.25;;;15.71;50.46
49397;BME280;35615;41.410;2.194;2023-04-06T03:28:29;101810.28;;;15.85;50.21
49397;BME280;35615;41.410;2.194;2023-04-06T03:31:00;101817.13;;;15.81;50.25
49397;BME280;35615;41.410;2.194;2023-04-06T03:33:50;101809.41;;;15.84;50.27
49397;BME280;35615;41.410;2.194;2023-04-06T03:36:22;101812.00;;;15.59;51.13
49397;BME280;35615;41.410;2.194;2023-04-06T03:38:49;101815.09;;;15.73;50.67
49397;BME280;35615;41.410;2.194;2023-04-06T03:41:18;101808.28;;;15.76;50.41
49397;BME280;35615;41.410;2.194;2023-04-06T03:44:07;101809.00;;;15.72;50.26
49397;BME280;35615;41.410;2.194;2023-04-06T03:46:36;101817.56;;;15.68;50.56
49397;BME280;35615;41.410;2.194;2023-04-06T03:49:03;101809.75;;;15.68;50.32
49397;BME280;35615;41.410;2.194;2023-04-06T03:51:30;101813.59;;;15.79;50.29
49397;BME280;35615;41.410;2.194;2023-04-06T03:53:58;101811.78;;;15.77;50.01
49397;BME280;35615;41.410;2.194;2023-04-06T03:56:25;101820.78;;;15.61;50.27
49397;BME280;35615;41.410;2.194;2023-04-06T03:58:53;101814.94;;;15.68;50.05
49397;BME280;35615;41.410;2.194;2023-04-06T04:01:21;101823.81;;;15.49;50.53
49397;BME280;35615;41.410;2.194;2023-04-06T04:03:48;101818.72;;;15.52;50.27
49397;BME280;35615;41.410;2.194;2023-04-06T04:06:17;101817.31;;;15.62;50.07
49397;BME280;35615;41.410;2.194;2023-04-06T04:08:47;101828.91;;;15.46;50.64
49397;BME280;35615;41.410;2.194;2023-04-06T04:11:17;101821.66;;;15.61;49.99
49397;BME280;35615;41.410;2.194;2023-04-06T04:13:49;101824.38;;;15.64;49.94
49397;BME280;35615;41.410;2.194;2023-04-06T04:16:16;101828.84;;;15.45;50.62
49397;BME280;35615;41.410;2.194;2023-04-06T04:18:44;101826.72;;;15.58;50.32
49397;BME280;35615;41.410;2.194;2023-04-06T04:21:17;101821.75;;;15.40;50.76
49397;BME280;35615;41.410;2.194;2023-04-06T04:23:59;101827.53;;;15.56;50.46
49397;BME280;35615;41.410;2.194;2023-04-06T04:26:27;101823.41;;;15.38;50.75
49397;BME280;35615;41.410;2.194;2023-04-06T04:28:54;101826.25;;;15.45;50.92
49397;BME280;35615;41.410;2.194;2023-04-06T04:31:21;101827.63;;;15.35;51.15
49397;BME280;35615;41.410;2.194;2023-04-06T04:33:54;101831.81;;;15.30;51.45
49397;BME280;35615;41.410;2.194;2023-04-06T04:36:28;101827.59;;;15.33;51.24
49397;BME280;35615;41.410;2.194;2023-04-06T04:38:59;101826.03;;;15.38;51.43
49397;BME280;35615;41.410;2.194;2023-04-06T04:41:34;101826.97;;;15.40;51.24
49397;BME280;35615;41.410;2.194;2023-04-06T04:44:05;101822.97;;;15.50;50.73
49397;BME280;35615;41.410;2.194;2023-04-06T04:46:33;101832.81;;;15.59;50.62
49397;BME280;35615;41.410;2.194;2023-04-06T04:49:01;101833.44;;;15.52;50.84
49397;BME280;35615;41.410;2.194;2023-04-06T04:51:30;101831.94;;;15.58;50.61
49397;BME280;35615;41.410;2.194;2023-04-06T04:54:07;101839.47;;;15.51;50.79
49397;BME280;35615;41.410;2.194;2023-04-06T04:56:34;101846.25;;;15.46;50.85
49397;BME280;35615;41.410;2.194;2023-04-06T04:59:15;101842.88;;;15.48;50.61
49397;BME280;35615;41.410;2.194;2023-04-06T05:01:53;101850.69;;;15.48;50.48
49397;BME280;35615;41.410;2.194;2023-04-06T05:04:28;101845.19;;;15.40;50.51
49397;BME280;35615;41.410;2.194;2023-04-06T05:07:06;101850.63;;;15.23;50.86
49397;BME280;35615;41.410;2.194;2023-04-06T05:09:37;101854.50;;;15.34;50.51
49397;BME280;35615;41.410;2.194;2023-04-06T05:12:05;101864.34;;;15.41;50.21
49397;BME280;35615;41.410;2.194;2023-04-06T05:14:48;101861.19;;;15.27;50.27
49397;BME280;35615;41.410;2.194;2023-04-06T05:17:17;101860.59;;;15.34;50.30
49397;BME280;35615;41.410;2.194;2023-04-06T05:19:49;101857.84;;;15.30;50.26
49397;BME280;35615;41.410;2.194;2023-04-06T05:22:21;101863.59;;;15.21;50.64
49397;BME280;35615;41.410;2.194;2023-04-06T05:25:06;101856.66;;;15.22;50.54
49397;BME280;35615;41.410;2.194;2023-04-06T05:27:34;101862.72;;;15.21;50.49
49397;BME280;35615;41.410;2.194;2023-04-06T05:30:07;101867.97;;;15.22;50.22
49397;BME280;35615;41.410;2.194;2023-04-06T05:32:42;101858.66;;;15.29;50.28
49397;BME280;35615;41.410;2.194;2023-04-06T05:35:11;101861.09;;;15.24;50.22
49397;BME280;35615;41.410;2.194;2023-04-06T05:37:42;101869.31;;;15.35;49.79
49397;BME280;35615;41.410;2.194;2023-04-06T05:40:10;101868.84;;;15.23;49.79
49397;BME280;35615;41.410;2.194;2023-04-06T05:42:40;101873.13;;;15.21;49.77
49397;BME280;35615;41.410;2.194;2023-04-06T05:45:15;101876.22;;;15.34;49.16
49397;BME280;35615;41.410;2.194;2023-04-06T05:47:53;101872.66;;;15.08;49.62
49397;BME280;35615;41.410;2.194;2023-04-06T05:50:24;101874.91;;;15.22;49.77
49397;BME280;35615;41.410;2.194;2023-04-06T05:52:52;101878.13;;;15.16;49.72
49397;BME280;35615;41.410;2.194;2023-04-06T05:55:21;101883.00;;;15.07;49.64
49397;BME280;35615;41.410;2.194;2023-04-06T05:57:57;101890.63;;;15.02;49.24
49397;BME280;35615;41.410;2.194;2023-04-06T06:00:25;101883.00;;;15.07;49.00
49397;BME280;35615;41.410;2.194;2023-04-06T06:03:03;101892.88;;;15.16;48.68
49397;BME280;35615;41.410;2.194;2023-04-06T06:05:34;101889.28;;;15.12;48.77
49397;BME280;35615;41.410;2.194;2023-04-06T06:08:10;101896.91;;;15.30;49.22
49397;BME280;35615;41.410;2.194;2023-04-06T06:10:38;101891.88;;;15.12;48.82
49397;BME280;35615;41.410;2.194;2023-04-06T06:13:09;101898.81;;;15.11;48.85
49397;BME280;35615;41.410;2.194;2023-04-06T06:15:39;101894.38;;;15.09;48.73
49397;BME280;35615;41.410;2.194;2023-04-06T06:18:09;101898.59;;;15.29;48.77
49397;BME280;35615;41.410;2.194;2023-04-06T06:20:44;101902.81;;;15.26;48.51
49397;BME280;35615;41.410;2.194;2023-04-06T06:23:14;101906.63;;;15.35;48.52
49397;BME280;35615;41.410;2.194;2023-04-06T06:25:42;101900.97;;;15.23;48.44
49397;BME280;35615;41.410;2.194;2023-04-06T06:28:09;101901.78;;;15.45;48.17
49397;BME280;35615;41.410;2.194;2023-04-06T06:30:39;101904.75;;;15.31;48.29
49397;BME280;35615;41.410;2.194;2023-04-06T06:33:07;101912.88;;;15.40;48.31
49397;BME280;35615;41.410;2.194;2023-04-06T06:35:35;101913.22;;;15.50;48.33
49397;BME280;35615;41.410;2.194;2023-04-06T06:38:04;101925.56;;;15.54;48.15
49397;BME280;35615;41.410;2.194;2023-04-06T06:40:33;101923.53;;;15.47;47.69
49397;BME280;35615;41.410;2.194;2023-04-06T06:43:00;101923.19;;;15.60;47.54
49397;BME280;35615;41.410;2.194;2023-04-06T06:45:35;101924.22;;;15.63;47.47
49397;BME280;35615;41.410;2.194;2023-04-06T06:48:04;101918.03;;;15.61;47.69
49397;BME280;35615;41.410;2.194;2023-04-06T06:50:38;101918.25;;;15.67;47.54
49397;BME280;35615;41.410;2.194;2023-04-06T06:53:07;101919.53;;;15.79;47.48
49397;BME280;35615;41.410;2.194;2023-04-06T06:55:34;101922.53;;;15.89;47.44
49397;BME280;35615;41.410;2.194;2023-04-06T06:58:02;101919.06;;;15.65;47.25
49397;BME280;35615;41.410;2.194;2023-04-06T07:00:29;101928.88;;;15.74;47.10
49397;BME280;35615;41.410;2.194;2023-04-06T07:02:58;101923.31;;;15.87;47.39
49397;BME280;35615;41.410;2.194;2023-04-06T07:05:31;101924.84;;;15.82;47.15
49397;BME280;35615;41.410;2.194;2023-04-06T07:07:58;101920.38;;;16.03;46.87
49397;BME280;35615;41.410;2.194;2023-04-06T07:10:26;101930.84;;;16.05;46.72
49397;BME280;35615;41.410;2.194;2023-04-06T07:12:54;101930.25;;;16.12;46.66
49397;BME280;35615;41.410;2.194;2023-04-06T07:15:24;101920.13;;;16.21;46.14
49397;BME280;35615;41.410;2.194;2023-04-06T07:17:53;101918.00;;;16.35;46.11
49397;BME280;35615;41.410;2.194;2023-04-06T07:20:22;101920.25;;;16.51;46.09
49397;BME280;35615;41.410;2.194;2023-04-06T07:22:49;101928.03;;;16.49;45.86
49397;BME280;35615;41.410;2.194;2023-04-06T07:25:20;101920.19;;;16.49;45.53
49397;BME280;35615;41.410;2.194;2023-04-06T07:27:51;101928.34;;;16.59;45.27
49397;BME280;35615;41.410;2.194;2023-04-06T07:30:19;101933.31;;;16.76;45.27
49397;BME280;35615;41.410;2.194;2023-04-06T07:32:46;101929.69;;;16.73;44.70
49397;BME280;35615;41.410;2.194;2023-04-06T07:35:14;101943.25;;;16.88;45.26
49397;BME280;35615;41.410;2.194;2023-04-06T07:37:41;101948.59;;;16.93;44.75
49397;BME280;35615;41.410;2.194;2023-04-06T07:40:09;101938.81;;;16.86;44.81
49397;BME280;35615;41.410;2.194;2023-04-06T07:42:37;101946.47;;;16.81;44.87
49397;BME280;35615;41.410;2.194;2023-04-06T07:45:08;101948.63;;;16.94;44.80
49397;BME280;35615;41.410;2.194;2023-04-06T07:47:37;101955.81;;;17.01;44.86
49397;BME280;35615;41.410;2.194;2023-04-06T07:50:09;101943.03;;;17.09;44.39
49397;BME280;35615;41.410;2.194;2023-04-06T07:52:39;101945.16;;;17.22;44.61
49397;BME280;35615;41.410;2.194;2023-04-06T07:55:11;101950.47;;;17.25;44.26
49397;BME280;35615;41.410;2.194;2023-04-06T07:57:38;101951.63;;;17.35;44.19
49397;BME280;35615;41.410;2.194;2023-04-06T08:00:12;101952.06;;;17.20;44.14
49397;BME280;35615;41.410;2.194;2023-04-06T08:02:43;101954.69;;;17.20;44.26
49397;BME280;35615;41.410;2.194;2023-04-06T08:05:10;101958.25;;;17.52;43.91
49397;BME280;35615;41.410;2.194;2023-04-06T08:07:38;101944.41;;;17.56;43.55
49397;BME280;35615;41.410;2.194;2023-04-06T08:10:06;101946.72;;;17.74;43.54
49397;BME280;35615;41.410;2.194;2023-04-06T08:12:34;101942.38;;;18.08;43.01
49397;BME280;35615;41.410;2.194;2023-04-06T08:15:02;101947.25;;;18.28;43.11
49397;BME280;35615;41.410;2.194;2023-04-06T08:17:32;101944.63;;;18.27;42.45
49397;BME280;35615;41.410;2.194;2023-04-06T08:20:01;101945.47;;;18.61;42.46
49397;BME280;35615;41.410;2.194;2023-04-06T08:22:30;101940.25;;;18.62;41.77
49397;BME280;35615;41.410;2.194;2023-04-06T08:25:00;101943.09;;;18.70;41.74
49397;BME280;35615;41.410;2.194;2023-04-06T08:27:29;101952.41;;;18.95;41.03
49397;BME280;35615;41.410;2.194;2023-04-06T08:29:57;101949.53;;;19.22;40.68
49397;BME280;35615;41.410;2.194;2023-04-06T08:32:24;101956.88;;;19.38;40.84
49397;BME280;35615;41.410;2.194;2023-04-06T08:34:54;101950.34;;;19.58;40.79
49397;BME280;35615;41.410;2.194;2023-04-06T08:37:22;101952.75;;;19.51;40.66
49397;BME280;35615;41.410;2.194;2023-04-06T08:39:52;101960.09;;;19.65;39.98
49397;BME280;35615;41.410;2.194;2023-04-06T08:42:21;101964.94;;;19.49;40.34
49397;BME280;35615;41.410;2.194;2023-04-06T08:44:49;101968.06;;;19.71;40.81
49397;BME280;35615;41.410;2.194;2023-04-06T08:47:18;101961.09;;;19.72;40.41
49397;BME280;35615;41.410;2.194;2023-04-06T08:49:50;101961.59;;;19.54;40.69
49397;BME280;35615;41.410;2.194;2023-04-06T08:52:19;101952.53;;;19.81;40.37
49397;BME280;35615;41.410;2.194;2023-04-06T08:54:47;101965.59;;;19.38;41.22
49397;BME280;35615;41.410;2.194;2023-04-06T08:57:18;101965.31;;;19.64;40.79
49397;BME280;35615;41.410;2.194;2023-04-06T08:59:46;101963.22;;;19.90;41.08
49397;BME280;35615;41.410;2.194;2023-04-06T09:02:17;101964.53;;;19.69;41.22
49397;BME280;35615;41.410;2.194;2023-04-06T09:04:48;101961.53;;;19.95;40.79
49397;BME280;35615;41.410;2.194;2023-04-06T09:07:17;101965.22;;;20.05;40.89
49397;BME280;35615;41.410;2.194;2023-04-06T09:09:45;101961.03;;;20.14;40.84
49397;BME280;35615;41.410;2.194;2023-04-06T09:12:29;101966.75;;;20.40;40.81
49397;BME280;35615;41.410;2.194;2023-04-06T09:15:00;101970.22;;;20.91;40.51
49397;BME280;35615;41.410;2.194;2023-04-06T09:17:30;101965.53;;;20.71;41.07
49397;BME280;35615;41.410;2.194;2023-04-06T09:20:03;101961.97;;;20.66;42.09
49397;BME280;35615;41.410;2.194;2023-04-06T09:22:38;101967.19;;;20.63;42.95
49397;BME280;35615;41.410;2.194;2023-04-06T09:25:09;101961.06;;;21.25;42.24
49397;BME280;35615;41.410;2.194;2023-04-06T09:27:38;101958.78;;;21.49;41.70
49397;BME280;35615;41.410;2.194;2023-04-06T09:30:12;101961.66;;;21.67;41.65
49397;BME280;35615;41.410;2.194;2023-04-06T09:32:52;101957.66;;;22.01;41.32
49397;BME280;35615;41.410;2.194;2023-04-06T09:35:20;101960.50;;;22.18;41.09
49397;BME280;35615;41.410;2.194;2023-04-06T09:37:52;101963.56;;;21.82;41.21
49397;BME280;35615;41.410;2.194;2023-04-06T09:40:20;101969.03;;;21.99;40.99
49397;BME280;35615;41.410;2.194;2023-04-06T09:42:57;101959.25;;;21.87;41.25
49397;BME280;35615;41.410;2.194;2023-04-06T09:45:29;101960.53;;;21.47;42.40
49397;BME280;35615;41.410;2.194;2023-04-06T09:47:58;101963.53;;;21.76;41.60
49397;BME280;35615;41.410;2.194;2023-04-06T09:50:30;101966.31;;;21.93;41.80
49397;BME280;35615;41.410;2.194;2023-04-06T09:53:01;101957.94;;;22.27;40.72
49397;BME280;35615;41.410;2.194;2023-04-06T09:55:33;101966.41;;;21.99;41.41
49397;BME280;35615;41.410;2.194;2023-04-06T09:58:04;101972.25;;;22.58;40.87
49397;BME280;35615;41.410;2.194;2023-04-06T10:00:43;101969.69;;;21.81;42.06
49397;BME280;35615;41.410;2.194;2023-04-06T10:03:29;101977.78;;;21.98;42.28
49397;BME280;35615;41.410;2.194;2023-04-06T10:06:10;101970.16;;;22.18;42.04
49397;BME280;35615;41.410;2.194;2023-04-06T10:08:39;101973.72;;;22.27;42.01
49397;BME280;35615;41.410;2.194;2023-04-06T10:11:11;101964.88;;;22.18;42.55
49397;BME280;35615;41.410;2.194;2023-04-06T10:13:39;101961.28;;;22.08;42.95
49397;BME280;35615;41.410;2.194;2023-04-06T10:16:07;101959.84;;;22.47;42.14
49397;BME280;35615;41.410;2.194;2023-04-06T10:18:35;101959.63;;;22.21;43.15
49397;BME280;35615;41.410;2.194;2023-04-06T10:21:09;101968.63;;;22.44;43.12
49397;BME280;35615;41.410;2.194;2023-04-06T10:23:48;101956.25;;;22.34;43.10
49397;BME280;35615;41.410;2.194;2023-04-06T10:26:20;101966.69;;;22.26;43.52
49397;BME280;35615;41.410;2.194;2023-04-06T10:28:49;101959.63;;;22.21;43.28
49397;BME280;35615;41.410;2.194;2023-04-06T10:31:39;101953.84;;;21.73;44.58
49397;BME280;35615;41.410;2.194;2023-04-06T10:34:09;101955.59;;;21.73;44.20
49397;BME280;35615;41.410;2.194;2023-04-06T10:36:36;101964.53;;;21.21;45.88
49397;BME280;35615;41.410;2.194;2023-04-06T10:39:05;101958.78;;;21.49;45.40
49397;BME280;35615;41.410;2.194;2023-04-06T10:41:34;101964.50;;;21.17;45.50
49397;BME280;35615;41.410;2.194;2023-04-06T10:44:02;101968.09;;;20.67;46.68
49397;BME280;35615;41.410;2.194;2023-04-06T10:46:32;101963.56;;;21.15;46.24
49397;BME280;35615;41.410;2.194;2023-04-06T10:49:11;101952.72;;;21.53;45.06
49397;BME280;35615;41.410;2.194;2023-04-06T10:51:41;101944.97;;;21.64;45.35
49397;BME280;35615;41.410;2.194;2023-04-06T10:54:09;101942.84;;;22.07;44.48
49397;BME280;35615;41.410;2.194;2023-04-06T10:56:38;101943.22;;;21.63;45.48
49397;BME280;35615;41.410;2.194;2023-04-06T10:59:06;101934.69;;;21.87;44.55
49397;BME280;35615;41.410;2.194;2023-04-06T11:01:36;101949.75;;;22.01;44.77
49397;BME280;35615;41.410;2.194;2023-04-06T11:04:04;101936.22;;;22.53;43.62
49397;BME280;35615;41.410;2.194;2023-04-06T11:06:31;101939.09;;;21.89;44.69
49397;BME280;35615;41.410;2.194;2023-04-06T11:08:59;101930.88;;;22.42;43.85
49397;BME280;35615;41.410;2.194;2023-04-06T11:11:27;101928.84;;;22.12;44.64
49397;BME280;35615;41.410;2.194;2023-04-06T11:13:56;101926.50;;;22.46;44.02
49397;BME280;35615;41.410;2.194;2023-04-06T11:16:32;101930.41;;;23.00;42.73
49397;BME280;35615;41.410;2.194;2023-04-06T11:19:02;101932.34;;;23.36;42.15
49397;BME280;35615;41.410;2.194;2023-04-06T11:26:46;101918.13;;;23.05;42.63
49397;BME280;35615;41.410;2.194;2023-04-06T11:29:17;101916.38;;;22.99;42.66
49397;BME280;35615;41.410;2.194;2023-04-06T11:31:52;101917.81;;;22.59;43.58
49397;BME280;35615;41.410;2.194;2023-04-06T11:34:25;101927.63;;;21.83;45.04
49397;BME280;35615;41.410;2.194;2023-04-06T11:37:03;101921.94;;;22.26;44.73
49397;BME280;35615;41.410;2.194;2023-04-06T11:39:43;101922.41;;;21.86;45.18
49397;BME280;35615;41.410;2.194;2023-04-06T11:42:21;101921.53;;;21.87;45.23
49397;BME280;35615;41.410;2.194;2023-04-06T11:44:56;101909.81;;;21.59;46.44
49397;BME280;35615;41.410;2.194;2023-04-06T11:50:11;101912.28;;;21.42;45.82
49397;BME280;35615;41.410;2.194;2023-04-06T11:52:41;101918.19;;;21.27;46.51
49397;BME280;35615;41.410;2.194;2023-04-06T11:55:16;101904.34;;;22.21;44.31
49397;BME280;35615;41.410;2.194;2023-04-06T11:57:44;101901.28;;;22.83;43.13
49397;BME280;35615;41.410;2.194;2023-04-06T12:00:16;101899.41;;;22.62;43.10
49397;BME280;35615;41.410;2.194;2023-04-06T12:02:47;101894.69;;;22.18;44.16
49397;BME280;35615;41.410;2.194;2023-04-06T12:05:15;101895.88;;;22.58;43.49
49397;BME280;35615;41.410;2.194;2023-04-06T12:07:42;101893.81;;;22.21;44.35
49397;BME280;35615;41.410;2.194;2023-04-06T12:10:09;101890.66;;;22.71;43.37
49397;BME280;35615;41.410;2.194;2023-04-06T12:12:37;101881.06;;;22.74;43.04
49397;BME280;35615;41.410;2.194;2023-04-06T12:15:08;101894.78;;;22.29;44.55
49397;BME280;35615;41.410;2.194;2023-04-06T12:17:35;101878.91;;;22.21;44.57
49397;BME280;35615;41.410;2.194;2023-04-06T12:20:04;101884.34;;;22.40;44.15
49397;BME280;35615;41.410;2.194;2023-04-06T12:22:50;101881.44;;;22.08;45.25
49397;BME280;35615;41.410;2.194;2023-04-06T12:25:18;101884.13;;;22.17;44.98
49397;BME280;35615;41.410;2.194;2023-04-06T12:27:45;101887.44;;;21.97;44.70
49397;BME280;35615;41.410;2.194;2023-04-06T12:30:16;101879.78;;;22.19;43.99
49397;BME280;35615;41.410;2.194;2023-04-06T12:32:43;101881.63;;;22.29;44.51
49397;BME280;35615;41.410;2.194;2023-04-06T12:35:10;101889.44;;;22.18;44.45
49397;BME280;35615;41.410;2.194;2023-04-06T12:37:40;101878.38;;;21.69;45.65
49397;BME280;35615;41.410;2.194;2023-04-06T12:40:15;101885.63;;;21.93;44.63
49397;BME280;35615;41.410;2.194;2023-04-06T12:42:45;101880.75;;;22.30;43.97
49397;BME280;35615;41.410;2.194;2023-04-06T12:45:14;101875.38;;;22.18;43.90
49397;BME280;35615;41.410;2.194;2023-04-06T12:47:52;101876.28;;;22.24;43.35
49397;BME280;35615;41.410;2.194;2023-04-06T12:50:22;101866.97;;;22.71;41.88
49397;BME280;35615;41.410;2.194;2023-04-06T12:52:59;101866.94;;;22.61;42.33
49397;BME280;35615;41.410;2.194;2023-04-06T12:55:30;101865.84;;;22.33;42.37
49397;BME280;35615;41.410;2.194;2023-04-06T12:57:59;101859.84;;;22.51;41.94
49397;BME280;35615;41.410;2.194;2023-04-06T13:00:27;101860.41;;;22.12;42.41
49397;BME280;35615;41.410;2.194;2023-04-06T13:02:57;101866.66;;;22.28;41.84
49397;BME280;35615;41.410;2.194;2023-04-06T13:05:24;101862.50;;;22.59;41.38
49397;BME280;35615;41.410;2.194;2023-04-06T13:07:55;101856.56;;;22.92;40.84
49397;BME280;35615;41.410;2.194;2023-04-06T13:10:26;101865.13;;;22.54;41.80
49397;BME280;35615;41.410;2.194;2023-04-06T13:12:55;101843.94;;;22.39;41.60
49397;BME280;35615;41.410;2.194;2023-04-06T13:15:22;101859.69;;;22.33;41.84
49397;BME280;35615;41.410;2.194;2023-04-06T13:17:53;101846.75;;;22.70;41.27